sensor_id;sensor_type;location;lat;lon;timestamp;P1;durP1;ratioP1;P2;durP2;ratioP2
15202;SDS011;7702;51.046;5.184;2023-04-05T00:00:41;9.67;;;7.17;;
15202;SDS011;7702;51.046;5.184;2023-04-05T00:03:07;13.57;;;8.77;;
15202;SDS011;7702;51.046;5.184;2023-04-05T00:05:34;10.43;;;7.87;;
15202;SDS011;7702;51.046;5.184;2023-04-05T00:08:01;10.87;;;7.30;;
15202;SDS011;7702;51.046;5.184;2023-04-05T00:10:28;9.70;;;8.70;;
15202;SDS011;7702;51.046;5.184;2023-04-05T00:12:55;11.87;;;8.30;;
15202;SDS011;7702;51.046;5.184;2023-04-05T00:15:21;9.73;;;8.20;;
15202;SDS011;7702;51.046;5.184;2023-04-05T00:17:47;12.77;;;8.73;;
15202;SDS011;7702;51.046;5.184;2023-04-05T00:20:13;9.50;;;7.67;;
15202;SDS011;7702;51.046;5.184;2023-04-05T00:22:39;12.67;;;8.33;;
15202;SDS011;7702;51.046;5.184;2023-04-05T00:25:07;9.60;;;7.70;;
15202;SDS011;7702;51.046;5.184;2023-04-05T00:27:33;10.53;;;7.33;;
15202;SDS011;7702;51.046;5.184;2023-04-05T00:29:59;12.47;;;7.97;;
15202;SDS011;7702;51.046;5.184;2023-04-05T00:32:25;12.60;;;8.13;;
15202;SDS011;7702;51.046;5.184;2023-04-05T00:34:51;13.73;;;8.50;;
15202;SDS011;7702;51.046;5.184;2023-04-05T00:37:17;11.60;;;8.17;;
15202;SDS011;7702;51.046;5.184;2023-04-05T00:39:42;14.07;;;9.03;;
15202;SDS011;7702;51.046;5.184;2023-04-05T00:42:09;11.97;;;8.73;;
15202;SDS011;7702;51.046;5.184;2023-04-05T00:44:35;13.23;;;8.53;;
15202;SDS011;7702;51.046;5.184;2023-04-05T00:47:02;12.93;;;8.50;;
15202;SDS011;7702;51.046;5.184;2023-04-05T00:49:29;14.87;;;9.23;;
15202;SDS011;7702;51.046;5.184;2023-04-05T00:51:57;13.67;;;9.13;;
15202;SDS011;7702;51.046;5.184;2023-04-05T00:54:23;12.80;;;9.53;;
15202;SDS011;7702;51.046;5.184;2023-04-05T00:56:50;11.70;;;9.43;;
15202;SDS011;7702;51.046;5.184;2023-04-05T00:59:17;10.87;;;9.33;;
15202;SDS011;7702;51.046;5.184;2023-04-05T01:01:43;12.00;;;9.97;;
15202;SDS011;7702;51.046;5.184;2023-04-05T01:04:19;11.97;;;9.23;;
15202;SDS011;7702;51.046;5.184;2023-04-05T01:06:51;14.37;;;9.27;;
15202;SDS011;7702;51.046;5.184;2023-04-05T01:09:56;12.40;;;10.10;;
15202;SDS011;7702;51.046;5.184;2023-04-05T01:12:25;15.13;;;10.30;;
15202;SDS011;7702;51.046;5.184;2023-04-05T01:14:56;13.23;;;8.97;;
15202;SDS011;7702;51.046;5.184;2023-04-05T01:17:23;12.30;;;9.80;;
15202;SDS011;7702;51.046;5.184;2023-04-05T01:19:56;15.73;;;10.43;;
15202;SDS011;7702;51.046;5.184;2023-04-05T01:28:22;18.33;;;13.73;;
15202;SDS011;7702;51.046;5.184;2023-04-05T01:31:09;20.13;;;14.07;;
15202;SDS011;7702;51.046;5.184;2023-04-05T01:33:51;22.23;;;13.17;;
15202;SDS011;7702;51.046;5.184;2023-04-05T01:36:36;16.50;;;12.70;;
15202;SDS011;7702;51.046;5.184;2023-04-05T01:39:05;18.73;;;11.53;;
15202;SDS011;7702;51.046;5.184;2023-04-05T01:41:34;16.40;;;11.70;;
15202;SDS011;7702;51.046;5.184;2023-04-05T01:44:00;16.37;;;11.10;;
15202;SDS011;7702;51.046;5.184;2023-04-05T01:46:25;17.27;;;11.43;;
15202;SDS011;7702;51.046;5.184;2023-04-05T01:48:51;17.87;;;11.50;;
15202;SDS011;7702;51.046;5.184;2023-04-05T01:51:17;14.73;;;10.30;;
15202;SDS011;7702;51.046;5.184;2023-04-05T01:53:44;18.03;;;11.10;;
15202;SDS011;7702;51.046;5.184;2023-04-05T01:56:10;19.03;;;11.33;;
15202;SDS011;7702;51.046;5.184;2023-04-05T01:58:35;16.57;;;10.80;;
15202;SDS011;7702;51.046;5.184;2023-04-05T02:01:01;14.27;;;10.30;;
15202;SDS011;7702;51.046;5.184;2023-04-05T02:03:27;15.47;;;11.00;;
15202;SDS011;7702;51.046;5.184;2023-04-05T02:05:53;16.40;;;11.07;;
15202;SDS011;7702;51.046;5.184;2023-04-05T02:08:19;15.93;;;10.27;;
15202;SDS011;7702;51.046;5.184;2023-04-05T02:10:45;14.20;;;10.20;;
15202;SDS011;7702;51.046;5.184;2023-04-05T02:13:10;17.27;;;10.57;;
15202;SDS011;7702;51.046;5.184;2023-04-05T02:15:37;15.10;;;10.17;;
15202;SDS011;7702;51.046;5.184;2023-04-05T02:18:03;15.30;;;10.00;;
15202;SDS011;7702;51.046;5.184;2023-04-05T02:20:29;15.60;;;10.03;;
15202;SDS011;7702;51.046;5.184;2023-04-05T02:22:55;17.93;;;10.77;;
15202;SDS011;7702;51.046;5.184;2023-04-05T02:25:21;15.83;;;10.57;;
15202;SDS011;7702;51.046;5.184;2023-04-05T02:27:46;15.23;;;10.80;;
15202;SDS011;7702;51.046;5.184;2023-04-05T02:30:13;13.93;;;10.57;;
15202;SDS011;7702;51.046;5.184;2023-04-05T02:32:39;14.93;;;10.17;;
15202;SDS011;7702;51.046;5.184;2023-04-05T02:35:11;17.40;;;11.30;;
15202;SDS011;7702;51.046;5.184;2023-04-05T02:37:38;14.77;;;11.13;;
15202;SDS011;7702;51.046;5.184;2023-04-05T02:40:07;13.80;;;10.90;;
15202;SDS011;7702;51.046;5.184;2023-04-05T02:42:35;13.43;;;10.47;;
15202;SDS011;7702;51.046;5.184;2023-04-05T02:45:01;17.23;;;11.30;;
15202;SDS011;7702;51.046;5.184;2023-04-05T02:47:26;15.33;;;11.80;;
15202;SDS011;7702;51.046;5.184;2023-04-05T02:49:53;18.60;;;11.03;;
15202;SDS011;7702;51.046;5.184;2023-04-05T02:52:19;18.03;;;11.20;;
15202;SDS011;7702;51.046;5.184;2023-04-05T02:54:45;18.33;;;12.60;;
15202;SDS011;7702;51.046;5.184;2023-04-05T02:57:11;17.80;;;11.33;;
15202;SDS011;7702;51.046;5.184;2023-04-05T02:59:37;18.33;;;11.70;;
15202;SDS011;7702;51.046;5.184;2023-04-05T03:02:07;15.57;;;10.47;;
15202;SDS011;7702;51.046;5.184;2023-04-05T03:04:34;19.40;;;9.97;;
15202;SDS011;7702;51.046;5.184;2023-04-05T03:07:00;19.73;;;11.23;;
15202;SDS011;7702;51.046;5.184;2023-04-05T03:09:30;15.83;;;10.73;;
15202;SDS011;7702;51.046;5.184;2023-04-05T03:11:58;19.03;;;11.33;;
15202;SDS011;7702;51.046;5.184;2023-04-05T03:14:31;19.23;;;11.67;;
15202;SDS011;7702;51.046;5.184;2023-04-05T03:16:59;16.93;;;10.40;;
15202;SDS011;7702;51.046;5.184;2023-04-05T03:19:25;15.97;;;10.67;;
15202;SDS011;7702;51.046;5.184;2023-04-05T03:21:51;21.23;;;11.77;;
15202;SDS011;7702;51.046;5.184;2023-04-05T03:24:17;19.37;;;10.97;;
15202;SDS011;7702;51.046;5.184;2023-04-05T03:26:44;16.60;;;11.80;;
15202;SDS011;7702;51.046;5.184;2023-04-05T03:29:11;22.07;;;11.47;;
15202;SDS011;7702;51.046;5.184;2023-04-05T03:31:37;21.40;;;11.30;;
15202;SDS011;7702;51.046;5.184;2023-04-05T03:34:02;16.03;;;10.90;;
15202;SDS011;7702;51.046;5.184;2023-04-05T03:36:28;19.87;;;11.07;;
15202;SDS011;7702;51.046;5.184;2023-04-05T03:39:09;15.10;;;10.50;;
15202;SDS011;7702;51.046;5.184;2023-04-05T03:41:36;16.20;;;11.40;;
15202;SDS011;7702;51.046;5.184;2023-04-05T03:44:02;14.67;;;11.17;;
15202;SDS011;7702;51.046;5.184;2023-04-05T03:46:27;18.00;;;10.83;;
15202;SDS011;7702;51.046;5.184;2023-04-05T03:48:54;16.07;;;10.93;;
15202;SDS011;7702;51.046;5.184;2023-04-05T03:51:20;16.53;;;11.03;;
15202;SDS011;7702;51.046;5.184;2023-04-05T03:53:46;14.93;;;10.57;;
15202;SDS011;7702;51.046;5.184;2023-04-05T03:56:12;15.77;;;10.90;;
15202;SDS011;7702;51.046;5.184;2023-04-05T03:58:39;13.17;;;10.40;;
15202;SDS011;7702;51.046;5.184;2023-04-05T04:01:05;17.87;;;11.97;;
15202;SDS011;7702;51.046;5.184;2023-04-05T04:03:31;16.70;;;11.57;;
15202;SDS011;7702;51.046;5.184;2023-04-05T04:05:57;15.73;;;10.03;;
15202;SDS011;7702;51.046;5.184;2023-04-05T04:08:23;17.03;;;11.10;;
15202;SDS011;7702;51.046;5.184;2023-04-05T04:10:50;17.13;;;11.50;;
15202;SDS011;7702;51.046;5.184;2023-04-05T04:13:16;16.90;;;11.10;;
15202;SDS011;7702;51.046;5.184;2023-04-05T04:15:43;13.67;;;10.50;;
15202;SDS011;7702;51.046;5.184;2023-04-05T04:18:09;13.33;;;10.37;;
15202;SDS011;7702;51.046;5.184;2023-04-05T04:20:36;16.50;;;10.43;;
15202;SDS011;7702;51.046;5.184;2023-04-05T04:23:02;16.33;;;10.63;;
15202;SDS011;7702;51.046;5.184;2023-04-05T04:25:28;16.53;;;10.73;;
15202;SDS011;7702;51.046;5.184;2023-04-05T04:27:54;15.03;;;10.87;;
15202;SDS011;7702;51.046;5.184;2023-04-05T04:30:21;13.80;;;10.37;;
15202;SDS011;7702;51.046;5.184;2023-04-05T04:32:47;16.10;;;10.00;;
15202;SDS011;7702;51.046;5.184;2023-04-05T04:35:23;15.80;;;10.83;;
15202;SDS011;7702;51.046;5.184;2023-04-05T04:37:51;13.90;;;10.27;;
15202;SDS011;7702;51.046;5.184;2023-04-05T04:42:53;16.30;;;10.40;;
15202;SDS011;7702;51.046;5.184;2023-04-05T04:45:22;16.27;;;10.50;;
15202;SDS011;7702;51.046;5.184;2023-04-05T04:47:48;17.03;;;9.83;;
15202;SDS011;7702;51.046;5.184;2023-04-05T04:50:17;12.87;;;9.33;;
15202;SDS011;7702;51.046;5.184;2023-04-05T04:52:44;14.60;;;10.27;;
15202;SDS011;7702;51.046;5.184;2023-04-05T04:55:11;17.43;;;10.23;;
15202;SDS011;7702;51.046;5.184;2023-04-05T04:57:40;20.13;;;11.20;;
15202;SDS011;7702;51.046;5.184;2023-04-05T05:00:07;17.53;;;10.87;;
15202;SDS011;7702;51.046;5.184;2023-04-05T05:02:37;16.53;;;10.53;;
15202;SDS011;7702;51.046;5.184;2023-04-05T05:05:03;17.17;;;10.47;;
15202;SDS011;7702;51.046;5.184;2023-04-05T05:07:29;14.77;;;9.80;;
15202;SDS011;7702;51.046;5.184;2023-04-05T05:09:55;16.53;;;10.53;;
15202;SDS011;7702;51.046;5.184;2023-04-05T05:12:21;15.27;;;10.97;;
15202;SDS011;7702;51.046;5.184;2023-04-05T05:14:47;22.77;;;10.93;;
15202;SDS011;7702;51.046;5.184;2023-04-05T05:17:13;16.57;;;10.27;;
15202;SDS011;7702;51.046;5.184;2023-04-05T05:19:39;14.77;;;10.87;;
15202;SDS011;7702;51.046;5.184;2023-04-05T05:22:05;14.63;;;10.57;;
15202;SDS011;7702;51.046;5.184;2023-04-05T05:24:31;18.63;;;10.27;;
15202;SDS011;7702;51.046;5.184;2023-04-05T05:26:56;14.07;;;10.30;;
15202;SDS011;7702;51.046;5.184;2023-04-05T05:29:23;16.73;;;9.90;;
15202;SDS011;7702;51.046;5.184;2023-04-05T05:31:48;17.37;;;10.47;;
15202;SDS011;7702;51.046;5.184;2023-04-05T05:34:14;19.20;;;10.90;;
15202;SDS011;7702;51.046;5.184;2023-04-05T05:36:41;16.63;;;10.70;;
15202;SDS011;7702;51.046;5.184;2023-04-05T05:39:07;16.53;;;10.50;;
15202;SDS011;7702;51.046;5.184;2023-04-05T05:41:33;14.03;;;10.07;;
15202;SDS011;7702;51.046;5.184;2023-04-05T05:43:58;24.20;;;10.07;;
15202;SDS011;7702;51.046;5.184;2023-04-05T05:46:27;14.93;;;10.07;;
15202;SDS011;7702;51.046;5.184;2023-04-05T05:48:52;17.20;;;9.90;;
15202;SDS011;7702;51.046;5.184;2023-04-05T05:51:18;16.80;;;10.10;;
15202;SDS011;7702;51.046;5.184;2023-04-05T05:53:44;16.73;;;11.27;;
15202;SDS011;7702;51.046;5.184;2023-04-05T05:56:11;20.33;;;11.53;;
15202;SDS011;7702;51.046;5.184;2023-04-05T05:58:37;20.80;;;11.03;;
15202;SDS011;7702;51.046;5.184;2023-04-05T06:01:04;19.00;;;12.30;;
15202;SDS011;7702;51.046;5.184;2023-04-05T06:03:31;21.73;;;11.50;;
15202;SDS011;7702;51.046;5.184;2023-04-05T06:05:58;20.17;;;11.20;;
15202;SDS011;7702;51.046;5.184;2023-04-05T06:08:27;17.37;;;11.60;;
15202;SDS011;7702;51.046;5.184;2023-04-05T06:10:52;19.07;;;11.57;;
15202;SDS011;7702;51.046;5.184;2023-04-05T06:13:19;17.63;;;11.97;;
15202;SDS011;7702;51.046;5.184;2023-04-05T06:15:46;20.70;;;11.70;;
15202;SDS011;7702;51.046;5.184;2023-04-05T06:18:12;18.90;;;11.40;;
15202;SDS011;7702;51.046;5.184;2023-04-05T06:20:38;16.67;;;10.87;;
15202;SDS011;7702;51.046;5.184;2023-04-05T06:23:05;18.37;;;11.63;;
15202;SDS011;7702;51.046;5.184;2023-04-05T06:25:31;17.90;;;11.83;;
15202;SDS011;7702;51.046;5.184;2023-04-05T06:27:57;19.10;;;11.40;;
15202;SDS011;7702;51.046;5.184;2023-04-05T06:30:23;17.87;;;11.87;;
15202;SDS011;7702;51.046;5.184;2023-04-05T06:32:48;16.53;;;11.80;;
15202;SDS011;7702;51.046;5.184;2023-04-05T06:35:18;20.43;;;12.03;;
15202;SDS011;7702;51.046;5.184;2023-04-05T06:37:45;17.33;;;10.83;;
15202;SDS011;7702;51.046;5.184;2023-04-05T06:40:12;18.77;;;12.77;;
15202;SDS011;7702;51.046;5.184;2023-04-05T06:42:37;20.53;;;14.33;;
15202;SDS011;7702;51.046;5.184;2023-04-05T06:45:03;28.17;;;19.93;;
15202;SDS011;7702;51.046;5.184;2023-04-05T06:47:33;51.37;;;32.60;;
15202;SDS011;7702;51.046;5.184;2023-04-05T06:49:59;35.90;;;23.83;;
15202;SDS011;7702;51.046;5.184;2023-04-05T06:52:26;19.17;;;13.63;;
15202;SDS011;7702;51.046;5.184;2023-04-05T06:54:52;16.10;;;11.93;;
15202;SDS011;7702;51.046;5.184;2023-04-05T06:57:18;18.13;;;11.30;;
15202;SDS011;7702;51.046;5.184;2023-04-05T06:59:44;20.33;;;11.83;;
15202;SDS011;7702;51.046;5.184;2023-04-05T07:02:10;18.47;;;12.43;;
15202;SDS011;7702;51.046;5.184;2023-04-05T07:04:36;17.67;;;12.37;;
15202;SDS011;7702;51.046;5.184;2023-04-05T07:07:03;19.37;;;11.57;;
15202;SDS011;7702;51.046;5.184;2023-04-05T07:09:30;13.07;;;10.53;;
15202;SDS011;7702;51.046;5.184;2023-04-05T07:11:57;13.87;;;10.37;;
15202;SDS011;7702;51.046;5.184;2023-04-05T07:14:23;16.97;;;11.33;;
15202;SDS011;7702;51.046;5.184;2023-04-05T07:16:50;19.00;;;10.87;;
15202;SDS011;7702;51.046;5.184;2023-04-05T07:19:16;14.63;;;10.13;;
15202;SDS011;7702;51.046;5.184;2023-04-05T07:21:42;19.47;;;11.13;;
15202;SDS011;7702;51.046;5.184;2023-04-05T07:24:08;18.27;;;11.53;;
15202;SDS011;7702;51.046;5.184;2023-04-05T07:26:35;15.00;;;10.23;;
15202;SDS011;7702;51.046;5.184;2023-04-05T07:29:02;14.27;;;9.77;;
15202;SDS011;7702;51.046;5.184;2023-04-05T07:31:28;16.73;;;10.67;;
15202;SDS011;7702;51.046;5.184;2023-04-05T07:33:55;14.13;;;10.40;;
15202;SDS011;7702;51.046;5.184;2023-04-05T07:36:22;13.80;;;10.90;;
15202;SDS011;7702;51.046;5.184;2023-04-05T07:38:48;16.77;;;10.80;;
15202;SDS011;7702;51.046;5.184;2023-04-05T07:41:14;14.50;;;10.17;;
15202;SDS011;7702;51.046;5.184;2023-04-05T07:43:42;17.67;;;11.47;;
15202;SDS011;7702;51.046;5.184;2023-04-05T07:46:08;17.07;;;10.47;;
15202;SDS011;7702;51.046;5.184;2023-04-05T07:48:33;16.47;;;10.93;;
15202;SDS011;7702;51.046;5.184;2023-04-05T07:51:06;14.60;;;10.17;;
15202;SDS011;7702;51.046;5.184;2023-04-05T07:53:34;15.50;;;9.73;;
15202;SDS011;7702;51.046;5.184;2023-04-05T07:56:08;13.70;;;9.47;;
15202;SDS011;7702;51.046;5.184;2023-04-05T07:58:35;13.73;;;8.80;;
15202;SDS011;7702;51.046;5.184;2023-04-05T08:01:04;11.97;;;9.43;;
15202;SDS011;7702;51.046;5.184;2023-04-05T08:03:30;13.87;;;9.30;;
15202;SDS011;7702;51.046;5.184;2023-04-05T08:05:59;10.00;;;8.90;;
15202;SDS011;7702;51.046;5.184;2023-04-05T08:08:35;10.87;;;8.73;;
15202;SDS011;7702;51.046;5.184;2023-04-05T08:11:04;13.13;;;9.57;;
15202;SDS011;7702;51.046;5.184;2023-04-05T08:13:30;14.90;;;9.30;;
15202;SDS011;7702;51.046;5.184;2023-04-05T08:15:58;14.20;;;9.10;;
15202;SDS011;7702;51.046;5.184;2023-04-05T08:18:24;13.10;;;8.50;;
15202;SDS011;7702;51.046;5.184;2023-04-05T08:20:51;9.20;;;7.30;;
15202;SDS011;7702;51.046;5.184;2023-04-05T08:23:20;12.97;;;8.57;;
15202;SDS011;7702;51.046;5.184;2023-04-05T08:25:46;12.27;;;8.30;;
15202;SDS011;7702;51.046;5.184;2023-04-05T08:28:12;9.80;;;7.70;;
15202;SDS011;7702;51.046;5.184;2023-04-05T08:30:38;9.43;;;8.13;;
15202;SDS011;7702;51.046;5.184;2023-04-05T08:33:05;13.03;;;8.77;;
15202;SDS011;7702;51.046;5.184;2023-04-05T08:35:31;9.63;;;8.37;;
15202;SDS011;7702;51.046;5.184;2023-04-05T08:37:57;10.83;;;8.57;;
15202;SDS011;7702;51.046;5.184;2023-04-05T08:40:25;12.40;;;8.43;;
15202;SDS011;7702;51.046;5.184;2023-04-05T08:43:32;12.20;;;8.23;;
15202;SDS011;7702;51.046;5.184;2023-04-05T08:46:08;10.43;;;8.10;;
15202;SDS011;7702;51.046;5.184;2023-04-05T08:48:36;10.13;;;7.60;;
15202;SDS011;7702;51.046;5.184;2023-04-05T08:51:02;11.33;;;7.93;;
15202;SDS011;7702;51.046;5.184;2023-04-05T08:53:27;9.63;;;7.73;;
15202;SDS011;7702;51.046;5.184;2023-04-05T08:55:56;10.90;;;7.93;;
15202;SDS011;7702;51.046;5.184;2023-04-05T08:58:26;11.13;;;7.83;;
15202;SDS011;7702;51.046;5.184;2023-04-05T09:00:52;9.07;;;6.67;;
15202;SDS011;7702;51.046;5.184;2023-04-05T09:03:22;8.73;;;6.80;;
15202;SDS011;7702;51.046;5.184;2023-04-05T09:05:51;10.57;;;7.43;;
15202;SDS011;7702;51.046;5.184;2023-04-05T09:08:17;7.30;;;6.60;;
15202;SDS011;7702;51.046;5.184;2023-04-05T09:10:45;8.13;;;7.10;;
15202;SDS011;7702;51.046;5.184;2023-04-05T09:13:16;8.97;;;7.30;;
15202;SDS011;7702;51.046;5.184;2023-04-05T09:15:43;8.53;;;6.67;;
15202;SDS011;7702;51.046;5.184;2023-04-05T09:18:09;9.23;;;7.10;;
15202;SDS011;7702;51.046;5.184;2023-04-05T09:20:35;10.27;;;7.10;;
15202;SDS011;7702;51.046;5.184;2023-04-05T09:23:01;7.03;;;6.27;;
15202;SDS011;7702;51.046;5.184;2023-04-05T09:25:34;9.00;;;6.70;;
15202;SDS011;7702;51.046;5.184;2023-04-05T09:28:03;5.97;;;4.90;;
15202;SDS011;7702;51.046;5.184;2023-04-05T09:30:30;6.47;;;5.03;;
15202;SDS011;7702;51.046;5.184;2023-04-05T09:32:57;7.13;;;5.40;;
15202;SDS011;7702;51.046;5.184;2023-04-05T09:35:23;6.43;;;5.23;;
15202;SDS011;7702;51.046;5.184;2023-04-05T09:37:51;5.50;;;4.93;;
15202;SDS011;7702;51.046;5.184;2023-04-05T09:40:43;6.73;;;4.83;;
15202;SDS011;7702;51.046;5.184;2023-04-05T09:43:09;7.17;;;5.33;;
15202;SDS011;7702;51.046;5.184;2023-04-05T09:45:40;7.23;;;5.73;;
15202;SDS011;7702;51.046;5.184;2023-04-05T09:48:07;7.63;;;5.77;;
15202;SDS011;7702;51.046;5.184;2023-04-05T09:50:33;7.23;;;5.67;;
15202;SDS011;7702;51.046;5.184;2023-04-05T09:55:40;7.43;;;5.33;;
15202;SDS011;7702;51.046;5.184;2023-04-05T09:58:20;6.83;;;5.13;;
15202;SDS011;7702;51.046;5.184;2023-04-05T10:00:50;5.70;;;5.20;;
15202;SDS011;7702;51.046;5.184;2023-04-05T10:03:19;5.67;;;5.03;;
15202;SDS011;7702;51.046;5.184;2023-04-05T10:05:45;6.83;;;4.93;;
15202;SDS011;7702;51.046;5.184;2023-04-05T10:08:13;6.47;;;5.23;;
15202;SDS011;7702;51.046;5.184;2023-04-05T10:10:45;9.80;;;6.03;;
15202;SDS011;7702;51.046;5.184;2023-04-05T10:13:11;6.33;;;4.90;;
15202;SDS011;7702;51.046;5.184;2023-04-05T10:15:39;6.37;;;4.73;;
15202;SDS011;7702;51.046;5.184;2023-04-05T10:18:09;7.07;;;5.27;;
15202;SDS011;7702;51.046;5.184;2023-04-05T10:20:42;6.77;;;4.93;;
15202;SDS011;7702;51.046;5.184;2023-04-05T10:23:26;6.70;;;5.77;;
15202;SDS011;7702;51.046;5.184;2023-04-05T10:28:42;5.70;;;5.20;;
15202;SDS011;7702;51.046;5.184;2023-04-05T10:33:45;7.43;;;5.27;;
15202;SDS011;7702;51.046;5.184;2023-04-05T10:39:07;6.50;;;5.37;;
15202;SDS011;7702;51.046;5.184;2023-04-05T10:41:47;7.57;;;5.90;;
15202;SDS011;7702;51.046;5.184;2023-04-05T10:44:17;8.73;;;6.53;;
15202;SDS011;7702;51.046;5.184;2023-04-05T10:46:44;10.10;;;6.50;;
15202;SDS011;7702;51.046;5.184;2023-04-05T10:49:15;6.50;;;5.73;;
15202;SDS011;7702;51.046;5.184;2023-04-05T10:52:01;5.77;;;4.83;;
15202;SDS011;7702;51.046;5.184;2023-04-05T10:54:28;6.70;;;4.70;;
15202;SDS011;7702;51.046;5.184;2023-04-05T10:56:57;6.60;;;5.30;;
15202;SDS011;7702;51.046;5.184;2023-04-05T10:59:25;6.07;;;5.47;;
15202;SDS011;7702;51.046;5.184;2023-04-05T11:01:52;5.20;;;4.80;;
15202;SDS011;7702;51.046;5.184;2023-04-05T11:04:18;5.67;;;5.13;;
15202;SDS011;7702;51.046;5.184;2023-04-05T11:06:45;5.63;;;5.13;;
15202;SDS011;7702;51.046;5.184;2023-04-05T11:09:22;6.10;;;5.13;;
15202;SDS011;7702;51.046;5.184;2023-04-05T11:11:50;7.23;;;5.30;;
15202;SDS011;7702;51.046;5.184;2023-04-05T11:17:02;6.40;;;5.23;;
15202;SDS011;7702;51.046;5.184;2023-04-05T11:19:46;6.87;;;5.20;;
15202;SDS011;7702;51.046;5.184;2023-04-05T11:22:22;5.23;;;4.73;;
15202;SDS011;7702;51.046;5.184;2023-04-05T11:24:51;7.23;;;5.33;;
15202;SDS011;7702;51.046;5.184;2023-04-05T11:27:29;6.50;;;5.20;;
15202;SDS011;7702;51.046;5.184;2023-04-05T11:30:01;5.60;;;5.10;;
15202;SDS011;7702;51.046;5.184;2023-04-05T11:35:05;6.97;;;5.77;;
15202;SDS011;7702;51.046;5.184;2023-04-05T11:40:32;10.03;;;6.10;;
15202;SDS011;7702;51.046;5.184;2023-04-05T11:43:06;6.27;;;5.70;;
15202;SDS011;7702;51.046;5.184;2023-04-05T11:45:35;7.20;;;6.50;;
15202;SDS011;7702;51.046;5.184;2023-04-05T11:48:06;11.33;;;6.63;;
15202;SDS011;7702;51.046;5.184;2023-04-05T11:50:32;6.30;;;5.67;;
15202;SDS011;7702;51.046;5.184;2023-04-05T11:55:47;6.10;;;5.53;;
15202;SDS011;7702;51.046;5.184;2023-04-05T12:01:04;9.10;;;5.67;;
15202;SDS011;7702;51.046;5.184;2023-04-05T12:03:37;8.30;;;5.67;;
15202;SDS011;7702;51.046;5.184;2023-04-05T12:06:03;6.50;;;5.80;;
15202;SDS011;7702;51.046;5.184;2023-04-05T12:11:10;6.63;;;5.57;;
15202;SDS011;7702;51.046;5.184;2023-04-05T12:13:37;7.20;;;5.40;;
15202;SDS011;7702;51.046;5.184;2023-04-05T12:16:04;8.07;;;5.80;;
15202;SDS011;7702;51.046;5.184;2023-04-05T12:18:34;7.43;;;5.50;;
15202;SDS011;7702;51.046;5.184;2023-04-05T12:21:02;7.57;;;5.77;;
15202;SDS011;7702;51.046;5.184;2023-04-05T12:23:34;7.07;;;5.63;;
15202;SDS011;7702;51.046;5.184;2023-04-05T12:26:01;6.73;;;5.47;;
15202;SDS011;7702;51.046;5.184;2023-04-05T12:34:03;15.80;;;8.27;;
15202;SDS011;7702;51.046;5.184;2023-04-05T12:36:30;9.83;;;7.10;;
15202;SDS011;7702;51.046;5.184;2023-04-05T12:38:56;6.67;;;6.07;;
15202;SDS011;7702;51.046;5.184;2023-04-05T12:41:28;9.43;;;6.40;;
15202;SDS011;7702;51.046;5.184;2023-04-05T12:43:55;7.00;;;6.17;;
15202;SDS011;7702;51.046;5.184;2023-04-05T12:49:10;6.77;;;6.03;;
15202;SDS011;7702;51.046;5.184;2023-04-05T12:51:40;8.50;;;6.10;;
15202;SDS011;7702;51.046;5.184;2023-04-05T12:54:19;6.40;;;5.80;;
15202;SDS011;7702;51.046;5.184;2023-04-05T12:56:50;7.20;;;6.43;;
15202;SDS011;7702;51.046;5.184;2023-04-05T12:59:18;6.73;;;6.13;;
15202;SDS011;7702;51.046;5.184;2023-04-05T13:01:44;6.37;;;5.77;;
15202;SDS011;7702;51.046;5.184;2023-04-05T13:04:09;7.13;;;6.13;;
15202;SDS011;7702;51.046;5.184;2023-04-05T13:06:35;7.97;;;6.83;;
15202;SDS011;7702;51.046;5.184;2023-04-05T13:09:01;7.13;;;6.43;;
15202;SDS011;7702;51.046;5.184;2023-04-05T13:11:27;9.63;;;8.03;;
15202;SDS011;7702;51.046;5.184;2023-04-05T13:13:53;7.80;;;7.00;;
15202;SDS011;7702;51.046;5.184;2023-04-05T13:16:19;10.70;;;7.27;;
15202;SDS011;7702;51.046;5.184;2023-04-05T13:18:45;9.67;;;7.10;;
15202;SDS011;7702;51.046;5.184;2023-04-05T13:21:10;8.03;;;6.73;;
15202;SDS011;7702;51.046;5.184;2023-04-05T13:23:37;7.53;;;6.73;;
15202;SDS011;7702;51.046;5.184;2023-04-05T13:26:04;18.57;;;9.30;;
15202;SDS011;7702;51.046;5.184;2023-04-05T13:28:31;9.13;;;6.83;;
15202;SDS011;7702;51.046;5.184;2023-04-05T13:30:58;7.30;;;6.60;;
15202;SDS011;7702;51.046;5.184;2023-04-05T13:33:24;12.10;;;7.67;;
15202;SDS011;7702;51.046;5.184;2023-04-05T13:35:50;7.27;;;6.17;;
15202;SDS011;7702;51.046;5.184;2023-04-05T13:38:16;7.50;;;6.80;;
15202;SDS011;7702;51.046;5.184;2023-04-05T13:40:41;7.20;;;6.50;;
15202;SDS011;7702;51.046;5.184;2023-04-05T13:43:07;7.37;;;6.57;;
15202;SDS011;7702;51.046;5.184;2023-04-05T13:45:33;6.93;;;6.20;;
15202;SDS011;7702;51.046;5.184;2023-04-05T13:47:59;8.77;;;7.07;;
15202;SDS011;7702;51.046;5.184;2023-04-05T13:50:26;8.57;;;6.90;;
15202;SDS011;7702;51.046;5.184;2023-04-05T13:52:52;7.50;;;6.70;;
15202;SDS011;7702;51.046;5.184;2023-04-05T13:55:18;6.97;;;6.30;;
15202;SDS011;7702;51.046;5.184;2023-04-05T13:57:44;7.53;;;6.83;;
15202;SDS011;7702;51.046;5.184;2023-04-05T14:00:10;9.60;;;7.17;;
15202;SDS011;7702;51.046;5.184;2023-04-05T14:02:36;8.60;;;6.40;;
15202;SDS011;7702;51.046;5.184;2023-04-05T14:05:03;8.17;;;6.90;;
15202;SDS011;7702;51.046;5.184;2023-04-05T14:07:29;8.07;;;6.50;;
15202;SDS011;7702;51.046;5.184;2023-04-05T14:09:56;7.50;;;6.50;;
15202;SDS011;7702;51.046;5.184;2023-04-05T14:12:22;7.27;;;6.03;;
15202;SDS011;7702;51.046;5.184;2023-04-05T14:14:48;8.97;;;6.27;;
15202;SDS011;7702;51.046;5.184;2023-04-05T14:17:14;7.83;;;5.90;;
15202;SDS011;7702;51.046;5.184;2023-04-05T14:19:40;6.87;;;6.00;;
15202;SDS011;7702;51.046;5.184;2023-04-05T14:22:06;7.00;;;6.30;;
15202;SDS011;7702;51.046;5.184;2023-04-05T14:24:32;6.80;;;6.00;;
15202;SDS011;7702;51.046;5.184;2023-04-05T14:26:57;6.33;;;5.57;;
15202;SDS011;7702;51.046;5.184;2023-04-05T14:29:23;7.17;;;6.17;;
15202;SDS011;7702;51.046;5.184;2023-04-05T14:31:49;7.03;;;6.10;;
15202;SDS011;7702;51.046;5.184;2023-04-05T14:34:15;6.70;;;6.00;;
15202;SDS011;7702;51.046;5.184;2023-04-05T14:36:41;7.57;;;6.70;;
15202;SDS011;7702;51.046;5.184;2023-04-05T14:39:07;7.77;;;6.70;;
15202;SDS011;7702;51.046;5.184;2023-04-05T14:41:32;8.00;;;6.60;;
15202;SDS011;7702;51.046;5.184;2023-04-05T14:43:58;7.53;;;6.57;;
15202;SDS011;7702;51.046;5.184;2023-04-05T14:46:25;7.50;;;6.80;;
15202;SDS011;7702;51.046;5.184;2023-04-05T14:48:50;7.70;;;6.30;;
15202;SDS011;7702;51.046;5.184;2023-04-05T14:51:16;7.33;;;6.27;;
15202;SDS011;7702;51.046;5.184;2023-04-05T14:53:42;7.27;;;6.57;;
15202;SDS011;7702;51.046;5.184;2023-04-05T14:56:08;7.63;;;6.60;;
15202;SDS011;7702;51.046;5.184;2023-04-05T14:58:34;8.07;;;7.13;;
15202;SDS011;7702;51.046;5.184;2023-04-05T15:01:00;8.43;;;7.50;;
15202;SDS011;7702;51.046;5.184;2023-04-05T15:03:26;7.87;;;7.17;;
15202;SDS011;7702;51.046;5.184;2023-04-05T15:05:52;8.27;;;7.47;;
15202;SDS011;7702;51.046;5.184;2023-04-05T15:08:18;7.77;;;7.07;;
15202;SDS011;7702;51.046;5.184;2023-04-05T15:10:44;7.67;;;6.67;;
15202;SDS011;7702;51.046;5.184;2023-04-05T15:13:10;8.27;;;6.57;;
15202;SDS011;7702;51.046;5.184;2023-04-05T15:15:37;7.87;;;6.90;;
15202;SDS011;7702;51.046;5.184;2023-04-05T15:18:03;7.83;;;7.13;;
15202;SDS011;7702;51.046;5.184;2023-04-05T15:20:30;7.83;;;7.00;;
15202;SDS011;7702;51.046;5.184;2023-04-05T15:22:56;8.03;;;7.23;;
15202;SDS011;7702;51.046;5.184;2023-04-05T15:25:22;10.80;;;8.07;;
15202;SDS011;7702;51.046;5.184;2023-04-05T15:27:47;9.87;;;7.80;;
15202;SDS011;7702;51.046;5.184;2023-04-05T15:30:15;7.83;;;7.07;;
15202;SDS011;7702;51.046;5.184;2023-04-05T15:32:40;8.60;;;7.67;;
15202;SDS011;7702;51.046;5.184;2023-04-05T15:35:06;7.87;;;7.17;;